sensor_id;sensor_type;location;lat;lon;timestamp;P1;durP1;ratioP1;P2;durP2;ratioP2
51146;SDS011;37207;53.060;18.726;2023-02-28T00:02:20;79.90;;;24.20;;
51146;SDS011;37207;53.060;18.726;2023-02-28T00:04:46;63.10;;;19.90;;
51146;SDS011;37207;53.060;18.726;2023-02-28T00:07:18;37.50;;;15.20;;
51146;SDS011;37207;53.060;18.726;2023-02-28T00:09:44;50.20;;;17.80;;
51146;SDS011;37207;53.060;18.726;2023-02-28T00:12:10;49.60;;;16.20;;
51146;SDS011;37207;53.060;18.726;2023-02-28T00:14:40;56.50;;;16.80;;
51146;SDS011;37207;53.060;18.726;2023-02-28T00:17:06;55.70;;;15.70;;
51146;SDS011;37207;53.060;18.726;2023-02-28T00:19:32;46.10;;;15.60;;
51146;SDS011;37207;53.060;18.726;2023-02-28T00:21:58;46.90;;;16.00;;
51146;SDS011;37207;53.060;18.726;2023-02-28T00:24:24;35.90;;;15.20;;
51146;SDS011;37207;53.060;18.726;2023-02-28T00:26:49;35.20;;;14.80;;
51146;SDS011;37207;53.060;18.726;2023-02-28T00:29:15;37.10;;;15.70;;
51146;SDS011;37207;53.060;18.726;2023-02-28T00:31:43;30.40;;;13.90;;
51146;SDS011;37207;53.060;18.726;2023-02-28T00:34:10;45.40;;;15.20;;
51146;SDS011;37207;53.060;18.726;2023-02-28T00:36:36;42.40;;;15.00;;
51146;SDS011;37207;53.060;18.726;2023-02-28T00:39:03;39.20;;;14.10;;
51146;SDS011;37207;53.060;18.726;2023-02-28T00:41:29;47.10;;;15.50;;
51146;SDS011;37207;53.060;18.726;2023-02-28T00:43:55;41.80;;;16.60;;
51146;SDS011;37207;53.060;18.726;2023-02-28T00:46:21;50.10;;;18.00;;
51146;SDS011;37207;53.060;18.726;2023-02-28T00:48:47;57.60;;;18.50;;
51146;SDS011;37207;53.060;18.726;2023-02-28T00:51:14;48.20;;;17.50;;
51146;SDS011;37207;53.060;18.726;2023-02-28T00:53:39;58.30;;;20.20;;
51146;SDS011;37207;53.060;18.726;2023-02-28T00:56:05;78.30;;;20.90;;
51146;SDS011;37207;53.060;18.726;2023-02-28T00:58:31;70.90;;;22.50;;
51146;SDS011;37207;53.060;18.726;2023-02-28T01:00:57;94.20;;;23.10;;
51146;SDS011;37207;53.060;18.726;2023-02-28T01:03:23;83.30;;;23.20;;
51146;SDS011;37207;53.060;18.726;2023-02-28T01:05:49;77.10;;;24.10;;
51146;SDS011;37207;53.060;18.726;2023-02-28T01:08:16;61.50;;;18.30;;
51146;SDS011;37207;53.060;18.726;2023-02-28T01:10:43;79.00;;;19.40;;
51146;SDS011;37207;53.060;18.726;2023-02-28T01:13:09;54.00;;;17.50;;
51146;SDS011;37207;53.060;18.726;2023-02-28T01:15:36;62.10;;;18.00;;
51146;SDS011;37207;53.060;18.726;2023-02-28T01:18:05;39.30;;;15.50;;
51146;SDS011;37207;53.060;18.726;2023-02-28T01:20:31;42.40;;;14.90;;
51146;SDS011;37207;53.060;18.726;2023-02-28T01:22:57;49.10;;;16.90;;
51146;SDS011;37207;53.060;18.726;2023-02-28T01:25:23;68.70;;;20.50;;
51146;SDS011;37207;53.060;18.726;2023-02-28T01:27:48;63.40;;;19.00;;
51146;SDS011;37207;53.060;18.726;2023-02-28T01:30:14;67.40;;;20.00;;
51146;SDS011;37207;53.060;18.726;2023-02-28T01:32:40;58.10;;;19.60;;
51146;SDS011;37207;53.060;18.726;2023-02-28T01:35:06;58.60;;;18.90;;
51146;SDS011;37207;53.060;18.726;2023-02-28T01:37:32;56.90;;;18.40;;
51146;SDS011;37207;53.060;18.726;2023-02-28T01:39:58;50.40;;;16.10;;
51146;SDS011;37207;53.060;18.726;2023-02-28T01:42:24;42.30;;;15.90;;
51146;SDS011;37207;53.060;18.726;2023-02-28T01:44:55;41.70;;;15.90;;
51146;SDS011;37207;53.060;18.726;2023-02-28T01:47:22;47.80;;;15.90;;
51146;SDS011;37207;53.060;18.726;2023-02-28T01:49:52;52.60;;;15.50;;
51146;SDS011;37207;53.060;18.726;2023-02-28T01:52:18;44.20;;;14.50;;
51146;SDS011;37207;53.060;18.726;2023-02-28T01:54:48;46.40;;;16.00;;
51146;SDS011;37207;53.060;18.726;2023-02-28T01:57:18;48.10;;;17.80;;
51146;SDS011;37207;53.060;18.726;2023-02-28T01:59:49;61.30;;;17.10;;
51146;SDS011;37207;53.060;18.726;2023-02-28T02:02:20;51.10;;;17.90;;
51146;SDS011;37207;53.060;18.726;2023-02-28T02:04:56;62.20;;;17.40;;
51146;SDS011;37207;53.060;18.726;2023-02-28T02:07:28;62.60;;;18.90;;
51146;SDS011;37207;53.060;18.726;2023-02-28T02:12:48;56.10;;;17.60;;
51146;SDS011;37207;53.060;18.726;2023-02-28T02:16:04;56.50;;;17.10;;
51146;SDS011;37207;53.060;18.726;2023-02-28T02:18:37;63.30;;;18.70;;
51146;SDS011;37207;53.060;18.726;2023-02-28T02:26:58;47.00;;;17.80;;
51146;SDS011;37207;53.060;18.726;2023-02-28T02:29:42;52.80;;;17.40;;
51146;SDS011;37207;53.060;18.726;2023-02-28T02:35:20;56.80;;;15.90;;
51146;SDS011;37207;53.060;18.726;2023-02-28T02:40:46;57.80;;;17.40;;
51146;SDS011;37207;53.060;18.726;2023-02-28T02:43:24;54.20;;;15.50;;
51146;SDS011;37207;53.060;18.726;2023-02-28T02:45:55;56.40;;;14.80;;
51146;SDS011;37207;53.060;18.726;2023-02-28T02:48:29;42.00;;;14.70;;
51146;SDS011;37207;53.060;18.726;2023-02-28T02:50:58;47.00;;;14.10;;
51146;SDS011;37207;53.060;18.726;2023-02-28T02:53:30;37.70;;;14.80;;
51146;SDS011;37207;53.060;18.726;2023-02-28T02:56:01;53.60;;;16.50;;
51146;SDS011;37207;53.060;18.726;2023-02-28T03:00:58;48.50;;;15.40;;
51146;SDS011;37207;53.060;18.726;2023-02-28T03:06:04;35.80;;;13.30;;
51146;SDS011;37207;53.060;18.726;2023-02-28T03:08:35;49.10;;;15.30;;
51146;SDS011;37207;53.060;18.726;2023-02-28T03:11:04;70.10;;;20.50;;
51146;SDS011;37207;53.060;18.726;2023-02-28T03:22:24;47.40;;;17.20;;
51146;SDS011;37207;53.060;18.726;2023-02-28T03:27:53;41.30;;;15.90;;
51146;SDS011;37207;53.060;18.726;2023-02-28T03:30:38;45.60;;;17.40;;
51146;SDS011;37207;53.060;18.726;2023-02-28T03:33:21;56.60;;;18.70;;
51146;SDS011;37207;53.060;18.726;2023-02-28T03:36:06;54.20;;;18.20;;
51146;SDS011;37207;53.060;18.726;2023-02-28T03:38:42;56.90;;;18.60;;
51146;SDS011;37207;53.060;18.726;2023-02-28T03:41:28;47.30;;;17.50;;
51146;SDS011;37207;53.060;18.726;2023-02-28T03:44:12;57.40;;;18.00;;
51146;SDS011;37207;53.060;18.726;2023-02-28T03:46:43;39.50;;;17.20;;
51146;SDS011;37207;53.060;18.726;2023-02-28T03:49:18;56.90;;;17.70;;
51146;SDS011;37207;53.060;18.726;2023-02-28T03:51:48;51.60;;;18.10;;
51146;SDS011;37207;53.060;18.726;2023-02-28T03:54:18;44.70;;;16.40;;
51146;SDS011;37207;53.060;18.726;2023-02-28T03:56:54;42.60;;;17.90;;
51146;SDS011;37207;53.060;18.726;2023-02-28T03:59:29;29.90;;;14.70;;
51146;SDS011;37207;53.060;18.726;2023-02-28T04:02:00;34.90;;;14.00;;
51146;SDS011;37207;53.060;18.726;2023-02-28T04:04:26;57.80;;;21.20;;
51146;SDS011;37207;53.060;18.726;2023-02-28T04:06:52;58.20;;;20.20;;
51146;SDS011;37207;53.060;18.726;2023-02-28T04:09:25;60.10;;;18.70;;
51146;SDS011;37207;53.060;18.726;2023-02-28T04:11:52;50.10;;;18.20;;
51146;SDS011;37207;53.060;18.726;2023-02-28T04:14:18;40.70;;;17.20;;
51146;SDS011;37207;53.060;18.726;2023-02-28T04:16:44;52.70;;;17.20;;
51146;SDS011;37207;53.060;18.726;2023-02-28T04:19:11;47.00;;;18.00;;
51146;SDS011;37207;53.060;18.726;2023-02-28T04:21:39;48.40;;;17.40;;
51146;SDS011;37207;53.060;18.726;2023-02-28T04:24:08;61.90;;;18.30;;
51146;SDS011;37207;53.060;18.726;2023-02-28T04:26:40;44.50;;;17.40;;
51146;SDS011;37207;53.060;18.726;2023-02-28T04:29:09;52.10;;;17.60;;
51146;SDS011;37207;53.060;18.726;2023-02-28T04:31:37;44.70;;;17.60;;
51146;SDS011;37207;53.060;18.726;2023-02-28T04:34:03;45.10;;;15.50;;
51146;SDS011;37207;53.060;18.726;2023-02-28T04:36:30;52.80;;;16.70;;
51146;SDS011;37207;53.060;18.726;2023-02-28T04:38:56;43.60;;;16.20;;
51146;SDS011;37207;53.060;18.726;2023-02-28T04:41:23;45.30;;;17.40;;
51146;SDS011;37207;53.060;18.726;2023-02-28T04:43:51;42.80;;;17.00;;
51146;SDS011;37207;53.060;18.726;2023-02-28T04:46:18;46.80;;;15.00;;
51146;SDS011;37207;53.060;18.726;2023-02-28T04:48:45;40.40;;;15.60;;
51146;SDS011;37207;53.060;18.726;2023-02-28T04:51:13;41.50;;;16.00;;
51146;SDS011;37207;53.060;18.726;2023-02-28T04:53:41;87.60;;;23.50;;
51146;SDS011;37207;53.060;18.726;2023-02-28T04:56:08;58.70;;;20.60;;
51146;SDS011;37207;53.060;18.726;2023-02-28T04:58:39;60.30;;;21.20;;
51146;SDS011;37207;53.060;18.726;2023-02-28T05:01:07;64.40;;;20.60;;
51146;SDS011;37207;53.060;18.726;2023-02-28T05:03:43;81.10;;;22.10;;
51146;SDS011;37207;53.060;18.726;2023-02-28T05:06:10;62.50;;;21.40;;
51146;SDS011;37207;53.060;18.726;2023-02-28T05:08:37;53.10;;;20.30;;
51146;SDS011;37207;53.060;18.726;2023-02-28T05:11:03;63.10;;;18.80;;
51146;SDS011;37207;53.060;18.726;2023-02-28T05:13:33;66.20;;;20.90;;
51146;SDS011;37207;53.060;18.726;2023-02-28T05:15:59;63.10;;;20.20;;
51146;SDS011;37207;53.060;18.726;2023-02-28T05:18:25;64.90;;;21.40;;
51146;SDS011;37207;53.060;18.726;2023-02-28T05:20:51;55.00;;;20.60;;
51146;SDS011;37207;53.060;18.726;2023-02-28T05:23:17;47.00;;;19.50;;
51146;SDS011;37207;53.060;18.726;2023-02-28T05:25:45;47.10;;;20.70;;
51146;SDS011;37207;53.060;18.726;2023-02-28T05:28:11;63.80;;;20.70;;
51146;SDS011;37207;53.060;18.726;2023-02-28T05:30:37;65.70;;;22.00;;
51146;SDS011;37207;53.060;18.726;2023-02-28T05:33:04;82.80;;;24.40;;
51146;SDS011;37207;53.060;18.726;2023-02-28T05:35:30;53.80;;;20.80;;
51146;SDS011;37207;53.060;18.726;2023-02-28T05:37:57;68.50;;;23.50;;
51146;SDS011;37207;53.060;18.726;2023-02-28T05:40:23;77.80;;;23.80;;
51146;SDS011;37207;53.060;18.726;2023-02-28T05:42:50;88.40;;;23.00;;
51146;SDS011;37207;53.060;18.726;2023-02-28T05:45:17;57.10;;;19.50;;
51146;SDS011;37207;53.060;18.726;2023-02-28T05:47:43;50.00;;;20.90;;
51146;SDS011;37207;53.060;18.726;2023-02-28T05:50:10;65.70;;;20.80;;
51146;SDS011;37207;53.060;18.726;2023-02-28T05:52:37;74.90;;;20.70;;
51146;SDS011;37207;53.060;18.726;2023-02-28T05:55:03;62.10;;;21.10;;
51146;SDS011;37207;53.060;18.726;2023-02-28T05:57:32;58.10;;;21.30;;
51146;SDS011;37207;53.060;18.726;2023-02-28T05:59:59;65.80;;;22.40;;
51146;SDS011;37207;53.060;18.726;2023-02-28T06:02:25;70.50;;;24.40;;
51146;SDS011;37207;53.060;18.726;2023-02-28T06:04:51;82.30;;;24.80;;
51146;SDS011;37207;53.060;18.726;2023-02-28T06:07:16;79.40;;;25.40;;
51146;SDS011;37207;53.060;18.726;2023-02-28T06:09:43;86.40;;;26.40;;
51146;SDS011;37207;53.060;18.726;2023-02-28T06:12:09;60.50;;;24.80;;
51146;SDS011;37207;53.060;18.726;2023-02-28T06:14:35;70.60;;;23.60;;
51146;SDS011;37207;53.060;18.726;2023-02-28T06:17:03;61.60;;;23.40;;
51146;SDS011;37207;53.060;18.726;2023-02-28T06:19:29;68.20;;;25.60;;
51146;SDS011;37207;53.060;18.726;2023-02-28T06:21:56;136.90;;;37.90;;
51146;SDS011;37207;53.060;18.726;2023-02-28T06:24:23;125.60;;;37.40;;
51146;SDS011;37207;53.060;18.726;2023-02-28T06:26:50;99.30;;;35.60;;
51146;SDS011;37207;53.060;18.726;2023-02-28T06:29:16;101.90;;;35.30;;
51146;SDS011;37207;53.060;18.726;2023-02-28T06:31:44;97.20;;;32.30;;
51146;SDS011;37207;53.060;18.726;2023-02-28T06:34:11;111.10;;;39.40;;
51146;SDS011;37207;53.060;18.726;2023-02-28T06:36:38;124.50;;;39.80;;
51146;SDS011;37207;53.060;18.726;2023-02-28T06:39:05;113.30;;;36.70;;
51146;SDS011;37207;53.060;18.726;2023-02-28T06:41:32;90.00;;;34.30;;
51146;SDS011;37207;53.060;18.726;2023-02-28T06:44:04;90.00;;;32.60;;
51146;SDS011;37207;53.060;18.726;2023-02-28T06:46:31;87.60;;;30.40;;
51146;SDS011;37207;53.060;18.726;2023-02-28T06:48:57;94.60;;;47.70;;
51146;SDS011;37207;53.060;18.726;2023-02-28T06:51:23;81.80;;;44.90;;
51146;SDS011;37207;53.060;18.726;2023-02-28T06:53:50;103.00;;;49.10;;
51146;SDS011;37207;53.060;18.726;2023-02-28T06:56:18;105.00;;;52.80;;
51146;SDS011;37207;53.060;18.726;2023-02-28T06:58:54;90.30;;;34.50;;
51146;SDS011;37207;53.060;18.726;2023-02-28T07:01:21;114.90;;;36.10;;
51146;SDS011;37207;53.060;18.726;2023-02-28T07:03:50;94.50;;;34.40;;
51146;SDS011;37207;53.060;18.726;2023-02-28T07:06:18;79.70;;;45.20;;
51146;SDS011;37207;53.060;18.726;2023-02-28T07:08:45;83.70;;;43.70;;
51146;SDS011;37207;53.060;18.726;2023-02-28T07:11:11;81.10;;;43.80;;
51146;SDS011;37207;53.060;18.726;2023-02-28T07:13:37;92.50;;;47.30;;
51146;SDS011;37207;53.060;18.726;2023-02-28T07:16:04;102.00;;;51.70;;
51146;SDS011;37207;53.060;18.726;2023-02-28T07:18:32;108.60;;;56.70;;
51146;SDS011;37207;53.060;18.726;2023-02-28T07:21:01;127.40;;;64.20;;
51146;SDS011;37207;53.060;18.726;2023-02-28T07:23:28;122.90;;;65.10;;
51146;SDS011;37207;53.060;18.726;2023-02-28T07:25:54;117.80;;;65.30;;
51146;SDS011;37207;53.060;18.726;2023-02-28T07:28:19;136.50;;;74.50;;
51146;SDS011;37207;53.060;18.726;2023-02-28T07:30:45;134.30;;;72.90;;
51146;SDS011;37207;53.060;18.726;2023-02-28T07:33:11;126.00;;;67.50;;
51146;SDS011;37207;53.060;18.726;2023-02-28T07:35:37;121.30;;;63.70;;
51146;SDS011;37207;53.060;18.726;2023-02-28T07:38:03;129.30;;;65.00;;
51146;SDS011;37207;53.060;18.726;2023-02-28T07:40:29;131.40;;;65.60;;
51146;SDS011;37207;53.060;18.726;2023-02-28T07:42:56;140.50;;;64.20;;
51146;SDS011;37207;53.060;18.726;2023-02-28T07:47:50;123.90;;;58.40;;
51146;SDS011;37207;53.060;18.726;2023-02-28T07:50:16;114.70;;;53.90;;
51146;SDS011;37207;53.060;18.726;2023-02-28T07:52:42;111.50;;;56.80;;
51146;SDS011;37207;53.060;18.726;2023-02-28T07:55:08;107.20;;;53.90;;
51146;SDS011;37207;53.060;18.726;2023-02-28T07:57:35;107.80;;;56.40;;
51146;SDS011;37207;53.060;18.726;2023-02-28T08:00:02;101.20;;;53.80;;
51146;SDS011;37207;53.060;18.726;2023-02-28T08:02:37;103.50;;;59.90;;
51146;SDS011;37207;53.060;18.726;2023-02-28T08:05:03;124.50;;;68.80;;
51146;SDS011;37207;53.060;18.726;2023-02-28T08:07:29;130.10;;;66.90;;
51146;SDS011;37207;53.060;18.726;2023-02-28T08:09:55;97.50;;;56.90;;
51146;SDS011;37207;53.060;18.726;2023-02-28T08:12:20;103.30;;;57.50;;
51146;SDS011;37207;53.060;18.726;2023-02-28T08:14:46;109.90;;;56.20;;
51146;SDS011;37207;53.060;18.726;2023-02-28T08:17:12;92.00;;;49.50;;
51146;SDS011;37207;53.060;18.726;2023-02-28T08:19:38;93.70;;;52.00;;
51146;SDS011;37207;53.060;18.726;2023-02-28T08:22:04;77.30;;;46.80;;
51146;SDS011;37207;53.060;18.726;2023-02-28T08:24:30;68.00;;;43.60;;
51146;SDS011;37207;53.060;18.726;2023-02-28T08:26:56;75.60;;;40.50;;
51146;SDS011;37207;53.060;18.726;2023-02-28T08:29:22;59.00;;;36.00;;
51146;SDS011;37207;53.060;18.726;2023-02-28T08:31:48;55.40;;;34.70;;
51146;SDS011;37207;53.060;18.726;2023-02-28T08:34:14;47.90;;;33.90;;
51146;SDS011;37207;53.060;18.726;2023-02-28T08:36:42;61.00;;;34.90;;
51146;SDS011;37207;53.060;18.726;2023-02-28T08:39:10;57.20;;;34.10;;
51146;SDS011;37207;53.060;18.726;2023-02-28T08:41:36;58.20;;;34.90;;
51146;SDS011;37207;53.060;18.726;2023-02-28T08:44:02;67.70;;;38.60;;
51146;SDS011;37207;53.060;18.726;2023-02-28T08:46:29;57.50;;;35.30;;
51146;SDS011;37207;53.060;18.726;2023-02-28T08:48:55;52.10;;;33.90;;
51146;SDS011;37207;53.060;18.726;2023-02-28T08:51:25;51.30;;;32.80;;
51146;SDS011;37207;53.060;18.726;2023-02-28T08:53:53;52.80;;;36.00;;
51146;SDS011;37207;53.060;18.726;2023-02-28T08:56:20;46.00;;;30.70;;
51146;SDS011;37207;53.060;18.726;2023-02-28T08:58:47;40.70;;;27.70;;
51146;SDS011;37207;53.060;18.726;2023-02-28T09:01:16;29.20;;;23.20;;
51146;SDS011;37207;53.060;18.726;2023-02-28T09:03:44;26.00;;;21.20;;
51146;SDS011;37207;53.060;18.726;2023-02-28T09:06:11;24.80;;;20.20;;
51146;SDS011;37207;53.060;18.726;2023-02-28T09:08:38;32.40;;;23.40;;
51146;SDS011;37207;53.060;18.726;2023-02-28T09:11:05;29.90;;;20.90;;
51146;SDS011;37207;53.060;18.726;2023-02-28T09:13:31;33.10;;;21.30;;
51146;SDS011;37207;53.060;18.726;2023-02-28T09:15:59;29.90;;;21.80;;
51146;SDS011;37207;53.060;18.726;2023-02-28T09:18:26;20.90;;;17.60;;
51146;SDS011;37207;53.060;18.726;2023-02-28T09:20:53;19.00;;;16.50;;
51146;SDS011;37207;53.060;18.726;2023-02-28T09:23:19;18.40;;;15.90;;
51146;SDS011;37207;53.060;18.726;2023-02-28T09:25:50;21.40;;;15.30;;
51146;SDS011;37207;53.060;18.726;2023-02-28T09:28:18;16.30;;;14.60;;
51146;SDS011;37207;53.060;18.726;2023-02-28T09:30:45;18.80;;;14.50;;
51146;SDS011;37207;53.060;18.726;2023-02-28T09:33:13;16.60;;;13.00;;
51146;SDS011;37207;53.060;18.726;2023-02-28T09:35:40;10.90;;;9.80;;
51146;SDS011;37207;53.060;18.726;2023-02-28T09:38:06;11.10;;;10.00;;
51146;SDS011;37207;53.060;18.726;2023-02-28T09:40:35;13.50;;;10.70;;
51146;SDS011;37207;53.060;18.726;2023-02-28T09:43:05;14.50;;;11.00;;
51146;SDS011;37207;53.060;18.726;2023-02-28T09:45:41;6.60;;;6.00;;
51146;SDS011;37207;53.060;18.726;2023-02-28T09:48:12;10.50;;;9.40;;
51146;SDS011;37207;53.060;18.726;2023-02-28T09:50:45;6.30;;;5.70;;
51146;SDS011;37207;53.060;18.726;2023-02-28T09:53:15;9.20;;;7.50;;
51146;SDS011;37207;53.060;18.726;2023-02-28T09:56:05;32.10;;;5.20;;
51146;SDS011;37207;53.060;18.726;2023-02-28T09:58:37;6.00;;;5.50;;
51146;SDS011;37207;53.060;18.726;2023-02-28T10:01:21;7.30;;;6.80;;
51146;SDS011;37207;53.060;18.726;2023-02-28T10:07:17;8.60;;;7.90;;
51146;SDS011;37207;53.060;18.726;2023-02-28T10:09:50;13.70;;;9.20;;
51146;SDS011;37207;53.060;18.726;2023-02-28T10:12:20;12.80;;;9.50;;
51146;SDS011;37207;53.060;18.726;2023-02-28T10:14:47;12.00;;;10.30;;
51146;SDS011;37207;53.060;18.726;2023-02-28T10:17:24;11.70;;;10.50;;
51146;SDS011;37207;53.060;18.726;2023-02-28T10:20:07;12.90;;;11.60;;
51146;SDS011;37207;53.060;18.726;2023-02-28T10:22:53;12.80;;;11.70;;
51146;SDS011;37207;53.060;18.726;2023-02-28T10:25:40;15.70;;;11.80;;
51146;SDS011;37207;53.060;18.726;2023-02-28T10:28:14;13.20;;;11.90;;
51146;SDS011;37207;53.060;18.726;2023-02-28T10:30:44;17.80;;;13.40;;
51146;SDS011;37207;53.060;18.726;2023-02-28T10:33:15;15.40;;;12.40;;
51146;SDS011;37207;53.060;18.726;2023-02-28T10:35:48;14.50;;;12.80;;
51146;SDS011;37207;53.060;18.726;2023-02-28T10:38:20;10.80;;;9.80;;
51146;SDS011;37207;53.060;18.726;2023-02-28T10:40:49;18.50;;;13.10;;
51146;SDS011;37207;53.060;18.726;2023-02-28T10:48:33;15.00;;;11.00;;
51146;SDS011;37207;53.060;18.726;2023-02-28T10:51:05;11.70;;;10.50;;
51146;SDS011;37207;53.060;18.726;2023-02-28T10:53:35;11.60;;;10.50;;
51146;SDS011;37207;53.060;18.726;2023-02-28T11:01:34;12.30;;;11.10;;
51146;SDS011;37207;53.060;18.726;2023-02-28T11:04:48;12.60;;;11.30;;
51146;SDS011;37207;53.060;18.726;2023-02-28T11:07:02;12.10;;;11.00;;
51146;SDS011;37207;53.060;18.726;2023-02-28T11:09:33;11.50;;;10.30;;
51146;SDS011;37207;53.060;18.726;2023-02-28T11:12:01;19.80;;;10.40;;
51146;SDS011;37207;53.060;18.726;2023-02-28T11:14:30;12.80;;;10.60;;
51146;SDS011;37207;53.060;18.726;2023-02-28T11:17:10;10.10;;;9.30;;
51146;SDS011;37207;53.060;18.726;2023-02-28T11:19:44;12.40;;;11.30;;
51146;SDS011;37207;53.060;18.726;2023-02-28T11:22:15;17.40;;;11.90;;
51146;SDS011;37207;53.060;18.726;2023-02-28T11:24:47;16.20;;;12.10;;
51146;SDS011;37207;53.060;18.726;2023-02-28T11:27:45;13.00;;;11.80;;
51146;SDS011;37207;53.060;18.726;2023-02-28T11:32:51;12.20;;;10.50;;
51146;SDS011;37207;53.060;18.726;2023-02-28T11:35:20;14.80;;;10.40;;
51146;SDS011;37207;53.060;18.726;2023-02-28T11:38:11;12.30;;;11.20;;
51146;SDS011;37207;53.060;18.726;2023-02-28T11:46:14;10.90;;;9.70;;
51146;SDS011;37207;53.060;18.726;2023-02-28T11:55:06;9.20;;;7.90;;
51146;SDS011;37207;53.060;18.726;2023-02-28T12:03:31;8.90;;;8.10;;
51146;SDS011;37207;53.060;18.726;2023-02-28T12:09:09;10.00;;;9.10;;
51146;SDS011;37207;53.060;18.726;2023-02-28T12:11:54;10.80;;;9.60;;
51146;SDS011;37207;53.060;18.726;2023-02-28T12:17:11;11.40;;;10.30;;
51146;SDS011;37207;53.060;18.726;2023-02-28T12:22:50;12.80;;;11.00;;
51146;SDS011;37207;53.060;18.726;2023-02-28T12:27:57;10.50;;;9.60;;
51146;SDS011;37207;53.060;18.726;2023-02-28T12:30:28;12.00;;;10.10;;
51146;SDS011;37207;53.060;18.726;2023-02-28T12:33:03;18.30;;;9.80;;
51146;SDS011;37207;53.060;18.726;2023-02-28T12:35:34;11.60;;;10.40;;
51146;SDS011;37207;53.060;18.726;2023-02-28T12:38:12;10.70;;;9.70;;
51146;SDS011;37207;53.060;18.726;2023-02-28T12:40:47;10.50;;;9.70;;
51146;SDS011;37207;53.060;18.726;2023-02-28T12:43:27;15.20;;;9.80;;
51146;SDS011;37207;53.060;18.726;2023-02-28T12:46:09;12.40;;;11.10;;
51146;SDS011;37207;53.060;18.726;2023-02-28T12:48:44;12.20;;;11.10;;
51146;SDS011;37207;53.060;18.726;2023-02-28T12:51:15;12.10;;;10.70;;
51146;SDS011;37207;53.060;18.726;2023-02-28T12:59:31;12.90;;;11.20;;
51146;SDS011;37207;53.060;18.726;2023-02-28T13:05:18;10.30;;;9.40;;
51146;SDS011;37207;53.060;18.726;2023-02-28T13:10:24;12.40;;;10.50;;
51146;SDS011;37207;53.060;18.726;2023-02-28T13:12:51;13.40;;;9.20;;
51146;SDS011;37207;53.060;18.726;2023-02-28T13:15:24;9.00;;;8.10;;
51146;SDS011;37207;53.060;18.726;2023-02-28T13:17:55;10.10;;;9.10;;
51146;SDS011;37207;53.060;18.726;2023-02-28T13:22:50;8.70;;;7.80;;
51146;SDS011;37207;53.060;18.726;2023-02-28T13:33:29;8.40;;;7.70;;
51146;SDS011;37207;53.060;18.726;2023-02-28T13:44:05;8.40;;;7.70;;
51146;SDS011;37207;53.060;18.726;2023-02-28T13:46:32;7.50;;;6.70;;
51146;SDS011;37207;53.060;18.726;2023-02-28T13:51:51;7.80;;;7.20;;
51146;SDS011;37207;53.060;18.726;2023-02-28T13:54:23;9.40;;;8.50;;
51146;SDS011;37207;53.060;18.726;2023-02-28T13:57:32;10.70;;;9.00;;
51146;SDS011;37207;53.060;18.726;2023-02-28T13:59:53;13.70;;;8.70;;
51146;SDS011;37207;53.060;18.726;2023-02-28T14:05:34;8.50;;;7.60;;
51146;SDS011;37207;53.060;18.726;2023-02-28T14:11:04;10.10;;;9.30;;
51146;SDS011;37207;53.060;18.726;2023-02-28T14:13:49;11.70;;;9.40;;
51146;SDS011;37207;53.060;18.726;2023-02-28T14:16:17;10.20;;;9.10;;
51146;SDS011;37207;53.060;18.726;2023-02-28T14:18:48;10.50;;;9.50;;
51146;SDS011;37207;53.060;18.726;2023-02-28T14:21:24;11.20;;;10.10;;
51146;SDS011;37207;53.060;18.726;2023-02-28T14:32:22;10.70;;;9.70;;
51146;SDS011;37207;53.060;18.726;2023-02-28T14:37:30;9.90;;;9.00;;
51146;SDS011;37207;53.060;18.726;2023-02-28T14:40:02;11.40;;;9.10;;
51146;SDS011;37207;53.060;18.726;2023-02-28T14:42:34;10.50;;;9.70;;
51146;SDS011;37207;53.060;18.726;2023-02-28T14:45:03;13.70;;;10.20;;
51146;SDS011;37207;53.060;18.726;2023-02-28T14:47:31;10.80;;;9.30;;
51146;SDS011;37207;53.060;18.726;2023-02-28T14:49:59;11.40;;;9.90;;
51146;SDS011;37207;53.060;18.726;2023-02-28T14:52:30;12.10;;;10.80;;
51146;SDS011;37207;53.060;18.726;2023-02-28T14:54:59;11.70;;;10.60;;
51146;SDS011;37207;53.060;18.726;2023-02-28T14:57:43;13.20;;;11.70;;
51146;SDS011;37207;53.060;18.726;2023-02-28T15:02:57;11.90;;;10.80;;
51146;SDS011;37207;53.060;18.726;2023-02-28T15:05:31;12.10;;;10.90;;
51146;SDS011;37207;53.060;18.726;2023-02-28T15:08:04;11.80;;;10.60;;
51146;SDS011;37207;53.060;18.726;2023-02-28T15:10:35;12.90;;;11.10;;
51146;SDS011;37207;53.060;18.726;2023-02-28T15:13:02;12.90;;;11.60;;
51146;SDS011;37207;53.060;18.726;2023-02-28T15:21:18;11.10;;;10.20;;
51146;SDS011;37207;53.060;18.726;2023-02-28T15:26:34;14.50;;;12.60;;
51146;SDS011;37207;53.060;18.726;2023-02-28T15:29:08;32.30;;;17.50;;
51146;SDS011;37207;53.060;18.726;2023-02-28T15:31:43;23.10;;;14.60;;
51146;SDS011;37207;53.060;18.726;2023-02-28T15:34:18;26.50;;;16.80;;
51146;SDS011;37207;53.060;18.726;2023-02-28T15:36:46;20.30;;;15.90;;
51146;SDS011;37207;53.060;18.726;2023-02-28T15:39:23;17.20;;;14.40;;
51146;SDS011;37207;53.060;18.726;2023-02-28T15:42:17;21.80;;;11.90;;
51146;SDS011;37207;53.060;18.726;2023-02-28T15:47:16;14.40;;;11.60;;
51146;SDS011;37207;53.060;18.726;2023-02-28T15:49:45;13.10;;;11.80;;
51146;SDS011;37207;53.060;18.726;2023-02-28T15:52:17;13.90;;;11.60;;
51146;SDS011;37207;53.060;18.726;2023-02-28T15:54:45;19.20;;;11.60;;
51146;SDS011;37207;53.060;18.726;2023-02-28T15:57:14;17.80;;;12.10;;
51146;SDS011;37207;53.060;18.726;2023-02-28T15:59:52;13.20;;;11.40;;
51146;SDS011;37207;53.060;18.726;2023-02-28T16:02:22;13.40;;;11.80;;
51146;SDS011;37207;53.060;18.726;2023-02-28T16:07:24;15.30;;;13.70;;
51146;SDS011;37207;53.060;18.726;2023-02-28T16:09:51;15.50;;;13.70;;
51146;SDS011;37207;53.060;18.726;2023-02-28T16:12:17;16.10;;;14.40;;
51146;SDS011;37207;53.060;18.726;2023-02-28T16:14:43;16.90;;;14.90;;
51146;SDS011;37207;53.060;18.726;2023-02-28T16:17:16;16.90;;;14.70;;
51146;SDS011;37207;53.060;18.726;2023-02-28T16:19:47;14.30;;;12.90;;
51146;SDS011;37207;53.060;18.726;2023-02-28T16:22:13;19.20;;;13.80;;
51146;SDS011;37207;53.060;18.726;2023-02-28T16:24:39;39.30;;;23.10;;
51146;SDS011;37207;53.060;18.726;2023-02-28T16:27:05;51.60;;;29.60;;
51146;SDS011;37207;53.060;18.726;2023-02-28T16:29:33;70.80;;;34.00;;
51146;SDS011;37207;53.060;18.726;2023-02-28T16:32:01;68.30;;;32.80;;
51146;SDS011;37207;53.060;18.726;2023-02-28T16:34:31;54.40;;;26.70;;
51146;SDS011;37207;53.060;18.726;2023-02-28T16:36:57;35.50;;;24.80;;
51146;SDS011;37207;53.060;18.726;2023-02-28T16:39:24;23.70;;;12.40;;
51146;SDS011;37207;53.060;18.726;2023-02-28T16:41:50;20.50;;;12.30;;
51146;SDS011;37207;53.060;18.726;2023-02-28T16:44:27;38.60;;;24.00;;
51146;SDS011;37207;53.060;18.726;2023-02-28T16:46:55;32.60;;;15.30;;
51146;SDS011;37207;53.060;18.726;2023-02-28T16:49:22;96.80;;;29.00;;
51146;SDS011;37207;53.060;18.726;2023-02-28T16:51:48;141.70;;;51.80;;
51146;SDS011;37207;53.060;18.726;2023-02-28T16:54:14;138.70;;;54.50;;